createdAt,value
2023-02-23T00:00:22.460Z,-0.79
2023-02-23T00:01:25.820Z,-0.79
2023-02-23T00:02:28.557Z,-0.79
2023-02-23T00:03:30.433Z,-0.80
2023-02-23T00:04:33.574Z,-0.81
2023-02-23T00:05:37.446Z,-0.81
2023-02-23T00:06:40.884Z,-0.82
2023-02-23T00:07:43.909Z,-0.82
2023-02-23T00:08:47.872Z,-0.84
2023-02-23T00:09:50.824Z,-0.84
2023-02-23T00:10:58.432Z,-0.84
2023-02-23T00:12:00.494Z,-0.84
2023-02-23T00:13:04.934Z,-0.84
2023-02-23T00:14:08.227Z,-0.86
2023-02-23T00:15:11.828Z,-0.87
2023-02-23T00:16:15.226Z,-0.87
2023-02-23T00:17:18.137Z,-0.88
2023-02-23T00:18:20.959Z,-0.88
2023-02-23T00:19:24.732Z,-0.87
2023-02-23T00:20:27.652Z,-0.87
2023-02-23T00:21:32.952Z,-0.87
2023-02-23T00:22:34.986Z,-0.89
2023-02-23T00:23:38.700Z,-0.88
2023-02-23T00:24:42.288Z,-0.88
2023-02-23T00:26:05.094Z,-0.88
2023-02-23T00:27:07.297Z,-0.87
2023-02-23T00:28:10.170Z,-0.89
2023-02-23T00:29:17.113Z,-0.88
2023-02-23T00:30:21.099Z,-0.90
2023-02-23T00:31:25.948Z,-0.91
2023-02-23T00:32:28.859Z,-0.91
2023-02-23T00:33:31.343Z,-0.91
2023-02-23T00:34:35.719Z,-0.92
2023-02-23T00:35:38.809Z,-0.92
2023-02-23T00:36:44.387Z,-0.93
2023-02-23T00:37:49.155Z,-0.93
2023-02-23T00:38:54.370Z,-0.93
2023-02-23T00:39:56.853Z,-0.95
2023-02-23T00:40:59.581Z,-0.95
2023-02-23T00:42:03.591Z,-0.95
2023-02-23T00:43:06.566Z,-0.95
2023-02-23T00:44:08.429Z,-0.95
2023-02-23T00:45:12.573Z,-0.95
2023-02-23T00:46:16.490Z,-0.95
2023-02-23T00:47:19.853Z,-0.96
2023-02-23T00:48:24.497Z,-0.96
2023-02-23T00:49:27.631Z,-0.98
2023-02-23T00:50:29.803Z,-1.00
2023-02-23T00:51:32.891Z,-0.99
2023-02-23T00:52:36.341Z,-1.01
2023-02-23T00:53:39.193Z,-1.02
2023-02-23T00:54:41.763Z,-1.03
2023-02-23T00:55:44.577Z,-1.04
2023-02-23T00:56:46.447Z,-1.04
2023-02-23T00:57:49.237Z,-1.04
2023-02-23T00:58:53.330Z,-1.06
2023-02-23T00:59:56.208Z,-1.05
2023-02-23T01:01:00.837Z,-1.05
2023-02-23T01:02:03.719Z,-1.04
2023-02-23T01:03:05.534Z,-1.04
2023-02-23T01:04:08.663Z,-1.06
2023-02-23T01:05:11.504Z,-1.06
2023-02-23T01:06:15.850Z,-1.06
2023-02-23T01:07:17.621Z,-1.07
2023-02-23T01:08:22.324Z,-1.08
2023-02-23T01:09:27.851Z,-1.09
2023-02-23T01:10:31.025Z,-1.09
2023-02-23T01:11:32.918Z,-1.08
2023-02-23T01:12:35.649Z,-1.08
2023-02-23T01:13:37.852Z,-1.07
2023-02-23T01:14:42.430Z,-1.07
2023-02-23T01:15:48.124Z,-1.07
2023-02-23T01:16:50.925Z,-1.06
2023-02-23T01:17:52.817Z,-1.06
2023-02-23T01:18:56.634Z,-1.05
2023-02-23T01:19:59.991Z,-1.05
2023-02-23T01:21:03.082Z,-1.04
2023-02-23T01:22:05.064Z,-1.05
2023-02-23T01:23:08.153Z,-1.05
2023-02-23T01:24:12.764Z,-1.06
2023-02-23T01:25:16.442Z,-1.06
2023-02-23T01:26:19.215Z,-1.07
2023-02-23T01:27:22.003Z,-1.07
2023-02-23T01:28:23.920Z,-1.07
2023-02-23T01:29:26.681Z,-1.06
2023-02-23T01:30:29.479Z,-1.06
2023-02-23T01:31:32.520Z,-1.07
2023-02-23T01:32:35.034Z,-1.08
2023-02-23T01:33:57.099Z,-1.11
2023-02-23T01:34:59.012Z,-1.12
2023-02-23T01:36:02.065Z,-1.12
2023-02-23T01:37:04.139Z,-1.13
2023-02-23T01:38:08.388Z,-1.13
2023-02-23T01:39:14.106Z,-1.13
2023-02-23T01:40:28.672Z,-1.12
2023-02-23T01:41:32.984Z,-1.13
2023-02-23T01:42:39.117Z,-1.13
2023-02-23T01:43:56.138Z,-1.14
2023-02-23T01:45:24.632Z,-1.16
2023-02-23T01:46:27.795Z,-1.19
2023-02-23T01:47:30.318Z,-1.19
2023-02-23T01:48:37.301Z,-1.20
2023-02-23T01:49:40.253Z,-1.21
2023-02-23T01:50:47.288Z,-1.24
2023-02-23T01:51:59.788Z,-1.24
2023-02-23T01:53:04.909Z,-1.25
2023-02-23T01:54:10.764Z,-1.24
2023-02-23T01:55:23.069Z,-1.26
2023-02-23T01:56:27.241Z,-1.27
2023-02-23T01:57:30.267Z,-1.27
2023-02-23T01:58:33.771Z,-1.28
2023-02-23T01:59:40.258Z,-1.27
2023-02-23T02:00:48.240Z,-1.26
2023-02-23T02:01:51.052Z,-1.25
2023-02-23T02:02:53.081Z,-1.27
2023-02-23T02:03:57.989Z,-1.28
2023-02-23T02:05:00.368Z,-1.29
2023-02-23T02:06:06.028Z,-1.30
2023-02-23T02:07:08.380Z,-1.31
2023-02-23T02:08:11.758Z,-1.31
2023-02-23T02:09:17.308Z,-1.30
2023-02-23T02:10:39.622Z,-1.31
2023-02-23T02:11:44.620Z,-1.32
2023-02-23T02:12:51.922Z,-1.32
2023-02-23T02:13:55.590Z,-1.33
2023-02-23T02:14:59.584Z,-1.34
2023-02-23T02:16:13.789Z,-1.34
2023-02-23T02:17:27.228Z,-1.36
2023-02-23T02:18:38.130Z,-1.37
2023-02-23T02:20:06.652Z,-1.38
2023-02-23T02:21:23.610Z,-1.40
2023-02-23T02:22:48.204Z,-1.42
2023-02-23T02:24:02.441Z,-1.41
2023-02-23T02:25:24.570Z,-1.42
2023-02-23T02:26:34.230Z,-1.44
2023-02-23T02:27:50.671Z,-1.44
2023-02-23T02:29:19.809Z,-1.45
2023-02-23T02:30:46.165Z,-1.46
2023-02-23T02:32:17.483Z,-1.48
2023-02-23T02:33:34.879Z,-1.49
2023-02-23T02:35:03.104Z,-1.49
2023-02-23T02:36:33.058Z,-1.51
2023-02-23T02:37:47.712Z,-1.51
2023-02-23T02:38:54.065Z,-1.51
2023-02-23T02:40:15.944Z,-1.51
2023-02-23T02:41:21.142Z,-1.52
2023-02-23T02:42:31.024Z,-1.52
2023-02-23T02:43:38.717Z,-1.51
2023-02-23T02:44:50.662Z,-1.49
2023-02-23T02:45:55.832Z,-1.49
2023-02-23T02:47:02.202Z,-1.47
2023-02-23T02:48:08.605Z,-1.46
2023-02-23T02:49:17.471Z,-1.46
2023-02-23T02:50:22.606Z,-1.47
2023-02-23T02:51:28.572Z,-1.45
2023-02-23T02:52:35.684Z,-1.46
2023-02-23T02:53:45.338Z,-1.46
2023-02-23T02:54:49.382Z,-1.48
2023-02-23T02:55:52.869Z,-1.48
2023-02-23T02:56:57.680Z,-1.47
2023-02-23T02:58:03.591Z,-1.48
2023-02-23T02:59:06.307Z,-1.48
2023-02-23T03:00:30.784Z,-1.49
2023-02-23T03:01:51.190Z,-1.51
2023-02-23T03:03:11.545Z,-1.54
2023-02-23T03:04:39.977Z,-1.56
2023-02-23T03:06:04.350Z,-1.57
2023-02-23T03:07:29.619Z,-1.59
2023-02-23T03:08:56.170Z,-1.58
2023-02-23T03:10:22.635Z,-1.59
2023-02-23T03:11:44.115Z,-1.60
2023-02-23T03:13:15.894Z,-1.61
2023-02-23T03:14:43.541Z,-1.62
2023-02-23T03:16:14.254Z,-1.64
2023-02-23T03:17:46.519Z,-1.66
2023-02-23T03:19:19.151Z,-1.69
2023-02-23T03:20:44.804Z,-1.70
2023-02-23T03:22:09.217Z,-1.71
2023-02-23T03:23:36.326Z,-1.72
2023-02-23T03:25:00.580Z,-1.74
2023-02-23T03:26:25.079Z,-1.75
2023-02-23T03:28:01.340Z,-1.76
2023-02-23T03:29:26.230Z,-1.77
2023-02-23T03:30:56.269Z,-1.78
2023-02-23T03:32:22.646Z,-1.79
2023-02-23T03:33:48.836Z,-1.80
2023-02-23T03:35:13.528Z,-1.80
2023-02-23T03:36:38.204Z,-1.80
2023-02-23T03:38:00.981Z,-1.82
2023-02-23T03:39:24.319Z,-1.82
2023-02-23T03:40:46.524Z,-1.83
2023-02-23T03:42:09.497Z,-1.84
2023-02-23T03:43:32.797Z,-1.85
2023-02-23T03:45:00.005Z,-1.88
2023-02-23T03:46:21.761Z,-1.88
2023-02-23T03:47:44.085Z,-1.87
2023-02-23T03:49:06.845Z,-1.89
2023-02-23T03:50:30.682Z,-1.89
2023-02-23T03:51:53.298Z,-1.90
2023-02-23T03:53:16.633Z,-1.92
2023-02-23T03:54:39.797Z,-1.94
2023-02-23T03:56:02.538Z,-1.95
2023-02-23T03:57:26.904Z,-1.95
2023-02-23T03:58:50.552Z,-1.95
2023-02-23T04:00:13.742Z,-1.96
2023-02-23T04:01:34.933Z,-1.96
2023-02-23T04:02:56.143Z,-1.96
2023-02-23T04:04:16.792Z,-1.98
2023-02-23T04:05:38.393Z,-2.00
2023-02-23T04:07:02.582Z,-1.99
2023-02-23T04:08:26.724Z,-2.00
2023-02-23T04:09:47.649Z,-2.00
2023-02-23T04:11:12.446Z,-2.04
2023-02-23T04:12:40.650Z,-2.04
2023-02-23T04:13:44.400Z,-2.05
2023-02-23T04:14:54.078Z,-2.04
2023-02-23T04:15:57.750Z,-2.05
2023-02-23T04:16:59.652Z,-2.04
2023-02-23T04:18:04.669Z,-2.03
2023-02-23T04:19:06.548Z,-2.03
2023-02-23T04:20:12.140Z,-2.02
2023-02-23T04:21:14.030Z,-2.03
2023-02-23T04:22:16.859Z,-2.02
2023-02-23T04:23:40.678Z,-2.04
2023-02-23T04:24:42.554Z,-2.05
2023-02-23T04:25:45.416Z,-2.04
2023-02-23T04:26:47.156Z,-2.04
2023-02-23T04:27:51.812Z,-2.05
2023-02-23T04:28:53.951Z,-2.07
2023-02-23T04:29:56.825Z,-2.08
2023-02-23T04:31:00.421Z,-2.08
2023-02-23T04:32:02.346Z,-2.08
2023-02-23T04:33:05.263Z,-2.08
2023-02-23T04:34:07.134Z,-2.08
2023-02-23T04:35:11.141Z,-2.08
2023-02-23T04:36:13.062Z,-2.08
2023-02-23T04:37:17.084Z,-2.09
2023-02-23T04:38:18.852Z,-2.11
2023-02-23T04:39:21.615Z,-2.12
2023-02-23T04:40:24.449Z,-2.15
2023-02-23T04:41:27.239Z,-2.15
2023-02-23T04:42:29.579Z,-2.18
2023-02-23T04:43:33.938Z,-2.19
2023-02-23T04:44:35.737Z,-2.19
2023-02-23T04:45:38.661Z,-2.21
2023-02-23T04:46:41.385Z,-2.22
2023-02-23T04:47:44.702Z,-2.24
2023-02-23T04:48:46.536Z,-2.27
2023-02-23T04:49:49.332Z,-2.29
2023-02-23T04:50:52.671Z,-2.31
2023-02-23T04:51:55.750Z,-2.32
2023-02-23T04:52:57.616Z,-2.34
2023-02-23T04:54:00.426Z,-2.35
2023-02-23T04:55:03.182Z,-2.36
2023-02-23T04:56:07.072Z,-2.37
2023-02-23T04:57:09.565Z,-2.37
2023-02-23T04:58:13.727Z,-2.37
2023-02-23T04:59:17.086Z,-2.39
2023-02-23T05:00:20.457Z,-2.39
2023-02-23T05:01:22.616Z,-2.41
2023-02-23T05:02:25.733Z,-2.43
2023-02-23T05:03:27.535Z,-2.46
2023-02-23T05:04:30.311Z,-2.47
2023-02-23T05:05:32.636Z,-2.47
2023-02-23T05:06:35.758Z,-2.50
2023-02-23T05:07:38.238Z,-2.52
2023-02-23T05:08:41.160Z,-2.54
2023-02-23T05:09:42.971Z,-2.58
2023-02-23T05:10:47.392Z,-2.59
2023-02-23T05:12:09.668Z,-2.65
2023-02-23T05:13:11.518Z,-2.65
2023-02-23T05:14:15.138Z,-2.67
2023-02-23T05:15:18.559Z,-2.70
2023-02-23T05:16:21.393Z,-2.73
2023-02-23T05:17:23.278Z,-2.75
2023-02-23T05:18:26.358Z,-2.76
2023-02-23T05:19:28.767Z,-2.75
2023-02-23T05:20:31.492Z,-2.75
2023-02-23T05:21:33.320Z,-2.76
2023-02-23T05:22:36.635Z,-2.76
2023-02-23T05:23:38.744Z,-2.77
2023-02-23T05:24:41.551Z,-2.76
2023-02-23T05:25:43.365Z,-2.76
2023-02-23T05:26:46.370Z,-2.76
2023-02-23T05:27:48.189Z,-2.77
2023-02-23T05:28:51.381Z,-2.78
2023-02-23T05:29:53.162Z,-2.81
2023-02-23T05:30:57.399Z,-2.84
2023-02-23T05:31:59.381Z,-2.85
2023-02-23T05:33:02.159Z,-2.84
2023-02-23T05:34:04.220Z,-2.87
2023-02-23T05:35:08.928Z,-2.90
2023-02-23T05:36:11.782Z,-2.94
2023-02-23T05:37:14.538Z,-2.96
2023-02-23T05:38:16.652Z,-2.98
2023-02-23T05:39:19.409Z,-2.99
2023-02-23T05:40:21.253Z,-3.01
2023-02-23T05:41:24.679Z,-3.04
2023-02-23T05:42:26.533Z,-3.06
2023-02-23T05:43:29.256Z,-3.09
2023-02-23T05:44:31.092Z,-3.12
2023-02-23T05:45:34.252Z,-3.12
2023-02-23T05:46:37.453Z,-3.12
2023-02-23T05:47:40.254Z,-3.12
2023-02-23T05:48:43.273Z,-3.12
2023-02-23T05:49:46.714Z,-3.13
2023-02-23T05:50:48.567Z,-3.12
2023-02-23T05:51:51.952Z,-3.12
2023-02-23T05:52:54.113Z,-3.11
2023-02-23T05:53:57.073Z,-3.08
2023-02-23T05:54:58.988Z,-3.08
2023-02-23T05:56:02.818Z,-3.06
2023-02-23T05:57:04.698Z,-3.04
2023-02-23T05:58:07.474Z,-3.03
2023-02-23T05:59:09.546Z,-3.01
2023-02-23T06:00:14.270Z,-3.00
2023-02-23T06:01:17.764Z,-2.98
2023-02-23T06:02:22.473Z,-2.95
2023-02-23T06:03:25.166Z,-2.92
2023-02-23T06:04:27.920Z,-2.89
2023-02-23T06:05:29.945Z,-2.86
2023-02-23T06:06:32.733Z,-2.85
2023-02-23T06:07:34.617Z,-2.84
2023-02-23T06:08:37.393Z,-2.79
2023-02-23T06:09:39.298Z,-2.77
2023-02-23T06:10:42.048Z,-2.73
2023-02-23T06:11:44.570Z,-2.69
2023-02-23T06:12:47.614Z,-2.68
2023-02-23T06:13:49.782Z,-2.65
2023-02-23T06:14:52.938Z,-2.62
2023-02-23T06:15:55.548Z,-2.56
2023-02-23T06:17:00.235Z,-2.49
2023-02-23T06:18:03.686Z,-2.43
2023-02-23T06:19:06.705Z,-2.38
2023-02-23T06:20:10.262Z,-2.31
2023-02-23T06:21:13.028Z,-2.24
2023-02-23T06:22:17.421Z,-2.18
2023-02-23T06:23:20.222Z,-2.09
2023-02-23T06:24:23.562Z,-2.03
2023-02-23T06:25:25.801Z,-1.95
2023-02-23T06:26:28.809Z,-1.89
2023-02-23T06:27:30.947Z,-1.81
2023-02-23T06:28:34.250Z,-1.73
2023-02-23T06:29:37.228Z,-1.67
2023-02-23T06:30:40.757Z,-1.60
2023-02-23T06:31:43.468Z,-1.53
2023-02-23T06:32:46.265Z,-1.45
2023-02-23T06:33:53.396Z,-1.37
2023-02-23T06:34:56.317Z,-1.30
2023-02-23T06:36:00.581Z,-1.21
2023-02-23T06:37:02.380Z,-1.13
2023-02-23T06:38:06.278Z,-1.04
2023-02-23T06:39:09.128Z,-0.95
2023-02-23T06:40:11.852Z,-0.89
2023-02-23T06:41:14.654Z,-0.81
2023-02-23T06:42:16.432Z,-0.76
2023-02-23T06:43:19.215Z,-0.69
2023-02-23T06:44:22.157Z,-0.65
2023-02-23T06:45:25.061Z,-0.59
2023-02-23T06:46:26.898Z,-0.53
2023-02-23T06:47:29.705Z,-0.48
2023-02-23T06:48:32.509Z,-0.41
2023-02-23T06:49:35.643Z,-0.36
2023-02-23T06:50:38.508Z,-0.31
2023-02-23T06:51:40.369Z,-0.24
2023-02-23T06:52:43.192Z,-0.17
2023-02-23T06:53:45.385Z,-0.12
2023-02-23T06:54:48.256Z,-0.07
2023-02-23T06:55:50.000Z,-0.02
2023-02-23T06:56:53.318Z,0.04
2023-02-23T06:57:55.132Z,0.11
2023-02-23T06:58:57.834Z,0.17
2023-02-23T07:00:01.618Z,0.23
2023-02-23T07:01:04.395Z,0.27
2023-02-23T07:02:07.625Z,0.32
2023-02-23T07:03:09.806Z,0.36
2023-02-23T07:04:14.861Z,0.40
2023-02-23T07:05:19.619Z,0.46
2023-02-23T07:06:22.450Z,0.51
2023-02-23T07:07:24.345Z,0.55
2023-02-23T07:08:27.192Z,0.61
2023-02-23T07:09:30.651Z,0.67
2023-02-23T07:10:34.992Z,0.72
2023-02-23T07:11:36.989Z,0.76
2023-02-23T07:12:39.949Z,0.80
2023-02-23T07:13:42.479Z,0.85
2023-02-23T07:14:45.260Z,0.91
2023-02-23T07:15:47.436Z,0.96
2023-02-23T07:16:50.152Z,1.01
2023-02-23T07:17:53.109Z,1.05
2023-02-23T07:18:56.635Z,1.08
2023-02-23T07:19:59.401Z,1.15
2023-02-23T07:21:02.572Z,1.20
2023-02-23T07:22:05.838Z,1.25
2023-02-23T07:23:07.713Z,1.32
2023-02-23T07:24:10.612Z,1.37
2023-02-23T07:25:13.741Z,1.39
2023-02-23T07:26:17.016Z,1.44
2023-02-23T07:27:19.746Z,1.49
2023-02-23T07:28:21.777Z,1.55
2023-02-23T07:29:25.012Z,1.63
2023-02-23T07:30:26.886Z,1.71
2023-02-23T07:31:30.239Z,1.78
2023-02-23T07:32:32.206Z,1.82
2023-02-23T07:33:35.105Z,1.87
2023-02-23T07:34:38.288Z,1.93
2023-02-23T07:35:40.056Z,2.02
2023-02-23T07:36:44.189Z,2.09
2023-02-23T07:37:46.432Z,2.17
2023-02-23T07:38:49.235Z,2.20
2023-02-23T07:39:51.030Z,2.23
2023-02-23T07:40:54.701Z,2.24
2023-02-23T07:41:56.655Z,2.23
2023-02-23T07:42:59.464Z,2.21
2023-02-23T07:44:01.483Z,2.23
2023-02-23T07:45:04.672Z,2.25
2023-02-23T07:46:06.451Z,2.27
2023-02-23T07:47:09.594Z,2.28
2023-02-23T07:48:12.367Z,2.34
2023-02-23T07:49:14.172Z,2.37
2023-02-23T07:50:17.255Z,2.41
2023-02-23T07:51:19.380Z,2.43
2023-02-23T07:52:23.623Z,2.45
2023-02-23T07:53:27.842Z,2.47
2023-02-23T07:54:30.704Z,2.53
2023-02-23T07:55:32.506Z,2.57
2023-02-23T07:56:35.390Z,2.62
2023-02-23T07:57:39.518Z,2.69
2023-02-23T07:58:42.971Z,2.76
2023-02-23T07:59:46.129Z,2.82
2023-02-23T08:00:48.880Z,2.86
2023-02-23T08:01:51.730Z,2.89
2023-02-23T08:02:54.925Z,2.94
2023-02-23T08:03:56.742Z,2.97
2023-02-23T08:04:59.530Z,3.01
2023-02-23T08:06:01.392Z,3.07
2023-02-23T08:07:04.350Z,3.10
2023-02-23T08:08:07.468Z,3.11
2023-02-23T08:09:11.969Z,3.13
2023-02-23T08:10:13.967Z,3.13
2023-02-23T08:11:17.094Z,3.14
2023-02-23T08:12:20.549Z,3.16
2023-02-23T08:13:23.297Z,3.17
2023-02-23T08:14:25.284Z,3.19
2023-02-23T08:15:28.197Z,3.23
2023-02-23T08:16:31.000Z,3.28
2023-02-23T08:17:33.737Z,3.33
2023-02-23T08:18:35.658Z,3.37
2023-02-23T08:19:38.489Z,3.43
2023-02-23T08:20:41.263Z,3.50
2023-02-23T08:21:43.414Z,3.55
2023-02-23T08:22:49.640Z,3.61
2023-02-23T08:23:54.176Z,3.64
2023-02-23T08:24:56.331Z,3.67
2023-02-23T08:25:59.596Z,3.67
2023-02-23T08:27:02.901Z,3.70
2023-02-23T08:28:06.816Z,3.75
2023-02-23T08:29:09.880Z,3.80
2023-02-23T08:30:14.183Z,3.83
2023-02-23T08:31:19.443Z,3.87
2023-02-23T08:32:22.530Z,3.92
2023-02-23T08:33:25.368Z,3.93
2023-02-23T08:34:27.272Z,3.94
2023-02-23T08:35:31.076Z,3.96
2023-02-23T08:36:34.189Z,3.96
2023-02-23T08:37:36.341Z,4.00
2023-02-23T08:38:39.168Z,4.05
2023-02-23T08:39:44.108Z,4.10
2023-02-23T08:40:46.014Z,4.13
2023-02-23T08:41:48.842Z,4.15
2023-02-23T08:42:51.983Z,4.16
2023-02-23T08:43:54.819Z,4.19
2023-02-23T08:44:57.616Z,4.19
2023-02-23T08:45:59.367Z,4.23
2023-02-23T08:47:04.525Z,4.28
2023-02-23T08:48:06.861Z,4.31
2023-02-23T08:49:11.503Z,4.33
2023-02-23T08:50:14.090Z,4.40
2023-02-23T08:51:17.162Z,4.42
2023-02-23T08:52:19.371Z,4.44
2023-02-23T08:53:23.112Z,4.48
2023-02-23T08:54:25.152Z,4.51
2023-02-23T08:55:29.255Z,4.55
2023-02-23T08:56:31.854Z,4.59
2023-02-23T08:57:35.337Z,4.63
2023-02-23T08:58:37.352Z,4.66
2023-02-23T08:59:59.035Z,4.73
2023-02-23T09:01:02.607Z,4.79
2023-02-23T09:02:04.813Z,4.82
2023-02-23T09:03:08.053Z,4.85
2023-02-23T09:04:10.811Z,4.89
2023-02-23T09:05:12.602Z,4.93
2023-02-23T09:06:18.420Z,4.97
2023-02-23T09:07:23.506Z,5.05
2023-02-23T09:08:26.358Z,5.09
2023-02-23T09:09:28.189Z,5.14
2023-02-23T09:10:33.497Z,5.21
2023-02-23T09:11:35.334Z,5.30
2023-02-23T09:12:38.140Z,5.36
2023-02-23T09:13:40.892Z,5.44
2023-02-23T09:14:43.613Z,5.50
2023-02-23T09:15:45.510Z,5.59
2023-02-23T09:16:48.527Z,5.67
2023-02-23T09:17:50.308Z,5.76
2023-02-23T09:18:53.345Z,5.84
2023-02-23T09:19:55.181Z,5.89
2023-02-23T09:20:58.157Z,5.92
2023-02-23T09:22:00.033Z,5.93
2023-02-23T09:23:02.946Z,5.95
2023-02-23T09:24:05.288Z,5.95
2023-02-23T09:25:10.400Z,6.00
2023-02-23T09:26:14.553Z,6.01
2023-02-23T09:27:17.320Z,6.04
2023-02-23T09:28:40.453Z,6.06
2023-02-23T09:29:44.812Z,6.10
2023-02-23T09:30:46.942Z,6.13
2023-02-23T09:31:52.860Z,6.17
2023-02-23T09:32:56.480Z,6.22
2023-02-23T09:34:00.332Z,6.26
2023-02-23T09:35:02.344Z,6.31
2023-02-23T09:36:07.470Z,6.37
2023-02-23T09:37:10.196Z,6.43
2023-02-23T09:38:12.036Z,6.51
2023-02-23T09:39:14.887Z,6.59
2023-02-23T09:40:19.271Z,6.64
2023-02-23T09:42:00.278Z,6.69
2023-02-23T09:43:07.628Z,6.75
2023-02-23T09:44:15.924Z,6.81
2023-02-23T09:45:25.848Z,6.87
2023-02-23T09:46:34.850Z,6.91
2023-02-23T09:47:44.971Z,6.92
2023-02-23T09:48:46.807Z,6.94
2023-02-23T09:50:16.471Z,6.96
2023-02-23T09:51:22.111Z,6.97
2023-02-23T09:52:29.521Z,7.01
2023-02-23T09:53:36.263Z,7.05
2023-02-23T09:54:38.077Z,7.06
2023-02-23T09:55:42.153Z,7.06
2023-02-23T09:56:45.746Z,7.06
2023-02-23T09:57:50.558Z,7.06
2023-02-23T09:58:54.714Z,7.10
2023-02-23T09:59:56.503Z,7.14
2023-02-23T10:01:12.398Z,7.19
2023-02-23T10:02:24.753Z,7.25
2023-02-23T10:03:28.372Z,7.30
2023-02-23T10:04:32.553Z,7.33
2023-02-23T10:05:39.838Z,7.41
2023-02-23T10:06:46.683Z,7.43
2023-02-23T10:07:52.511Z,7.47
2023-02-23T10:09:07.171Z,7.52
2023-02-23T10:10:21.207Z,7.59
2023-02-23T10:11:31.070Z,7.67
2023-02-23T10:12:36.888Z,7.72
2023-02-23T10:13:45.839Z,7.74
2023-02-23T10:15:01.687Z,7.75
2023-02-23T10:16:09.973Z,7.78
2023-02-23T10:17:20.163Z,7.83
2023-02-23T10:18:45.370Z,7.88
2023-02-23T10:19:53.942Z,7.99
2023-02-23T10:21:00.844Z,8.10
2023-02-23T10:22:04.774Z,8.14
2023-02-23T10:23:11.931Z,8.17
2023-02-23T10:24:19.489Z,8.21
2023-02-23T10:25:25.685Z,8.30
2023-02-23T10:26:31.937Z,8.38
2023-02-23T10:27:40.598Z,8.43
2023-02-23T10:28:44.547Z,8.45
2023-02-23T10:29:51.187Z,8.46
2023-02-23T10:30:56.949Z,8.44
2023-02-23T10:32:02.071Z,8.41
2023-02-23T10:33:08.614Z,8.45
2023-02-23T10:34:13.539Z,8.51
2023-02-23T10:35:19.267Z,8.56
2023-02-23T10:36:30.602Z,8.61
2023-02-23T10:37:33.395Z,8.67
2023-02-23T10:38:35.292Z,8.72
2023-02-23T10:39:38.145Z,8.77
2023-02-23T10:40:42.430Z,8.81
2023-02-23T10:41:44.509Z,8.87
2023-02-23T10:42:47.313Z,8.93
2023-02-23T10:43:49.206Z,8.95
2023-02-23T10:44:51.996Z,8.96
2023-02-23T10:45:56.442Z,8.97
2023-02-23T10:47:00.992Z,8.99
2023-02-23T10:48:06.879Z,9.01
2023-02-23T10:49:12.525Z,9.02
2023-02-23T10:50:15.403Z,9.04
2023-02-23T10:51:20.597Z,9.10
2023-02-23T10:52:28.643Z,9.15
2023-02-23T10:53:35.578Z,9.25
2023-02-23T10:54:47.415Z,9.34
2023-02-23T10:56:03.334Z,9.37
2023-02-23T10:57:07.286Z,9.38
2023-02-23T10:58:17.166Z,9.43
2023-02-23T10:59:21.077Z,9.53
2023-02-23T11:00:30.472Z,9.58
2023-02-23T11:01:43.787Z,9.65
2023-02-23T11:02:48.290Z,9.66
2023-02-23T11:04:05.414Z,9.68
2023-02-23T11:05:29.037Z,9.74
2023-02-23T11:06:33.710Z,9.71
2023-02-23T11:07:35.464Z,9.79
2023-02-23T11:08:39.522Z,9.90
2023-02-23T11:09:47.182Z,9.99
2023-02-23T11:10:58.872Z,10.02
2023-02-23T11:12:03.646Z,10.07
2023-02-23T11:13:06.456Z,10.08
2023-02-23T11:14:17.860Z,10.09
2023-02-23T11:15:46.485Z,10.11
2023-02-23T11:16:54.768Z,10.06
2023-02-23T11:17:58.127Z,10.04
2023-02-23T11:19:02.235Z,10.06
2023-02-23T11:20:06.912Z,10.07
2023-02-23T11:21:12.009Z,10.09
2023-02-23T11:22:22.255Z,10.12
2023-02-23T11:23:28.991Z,10.16
2023-02-23T11:24:35.339Z,10.19
2023-02-23T11:25:38.642Z,10.18
2023-02-23T11:26:43.443Z,10.20
2023-02-23T11:27:47.436Z,10.20
2023-02-23T11:28:52.665Z,10.21
2023-02-23T11:30:14.508Z,10.28
2023-02-23T11:31:19.930Z,10.35
2023-02-23T11:32:28.764Z,10.38
2023-02-23T11:33:35.718Z,10.42
2023-02-23T11:34:40.767Z,10.49
2023-02-23T11:35:42.665Z,10.57
2023-02-23T11:36:45.421Z,10.62
2023-02-23T11:37:47.530Z,10.65
2023-02-23T11:39:01.922Z,10.66
2023-02-23T11:40:20.596Z,10.65
2023-02-23T11:41:25.026Z,10.60
2023-02-23T11:42:33.455Z,10.57
2023-02-23T11:43:36.860Z,10.50
2023-02-23T11:44:38.732Z,10.48
2023-02-23T11:45:47.100Z,10.47
2023-02-23T11:46:50.692Z,10.50
2023-02-23T11:47:56.754Z,10.49
2023-02-23T11:49:01.504Z,10.51
2023-02-23T11:50:04.535Z,10.52
2023-02-23T11:51:07.680Z,10.52
2023-02-23T11:52:15.256Z,10.54
2023-02-23T11:53:19.788Z,10.53
2023-02-23T11:54:26.254Z,10.55
2023-02-23T11:55:30.351Z,10.55
2023-02-23T11:56:34.637Z,10.59
2023-02-23T11:57:36.600Z,10.58
2023-02-23T11:58:40.477Z,10.54
2023-02-23T11:59:46.685Z,10.48
2023-02-23T12:00:58.091Z,10.42
2023-02-23T12:02:07.501Z,10.39
2023-02-23T12:03:17.729Z,10.41
2023-02-23T12:04:31.298Z,10.46
2023-02-23T12:05:34.913Z,10.48
2023-02-23T12:06:39.573Z,10.52
2023-02-23T12:07:47.141Z,10.52
2023-02-23T12:08:52.292Z,10.53
2023-02-23T12:10:00.338Z,10.48
2023-02-23T12:11:25.634Z,10.36
2023-02-23T12:12:29.892Z,10.30
2023-02-23T12:13:36.376Z,10.28
2023-02-23T12:14:41.502Z,10.30
2023-02-23T12:15:49.718Z,10.32
2023-02-23T12:16:55.986Z,10.34
2023-02-23T12:18:01.408Z,10.40
2023-02-23T12:19:09.286Z,10.47
2023-02-23T12:20:16.494Z,10.48
2023-02-23T12:21:28.637Z,10.51
2023-02-23T12:22:33.938Z,10.53
2023-02-23T12:23:37.943Z,10.54
2023-02-23T12:24:45.296Z,10.58
2023-02-23T12:25:51.783Z,10.63
2023-02-23T12:26:55.768Z,10.63
2023-02-23T12:28:18.108Z,10.66
2023-02-23T12:29:24.594Z,10.68
2023-02-23T12:30:33.271Z,10.69
2023-02-23T12:31:40.507Z,10.69
2023-02-23T12:32:47.813Z,10.71
2023-02-23T12:33:55.060Z,10.72
2023-02-23T12:35:02.405Z,10.76
2023-02-23T12:36:14.321Z,10.87
2023-02-23T12:37:28.937Z,10.97
2023-02-23T12:38:39.866Z,11.05
2023-02-23T12:39:44.649Z,11.06
2023-02-23T12:40:48.029Z,11.03
2023-02-23T12:41:57.702Z,10.96
2023-02-23T12:43:04.274Z,10.90
2023-02-23T12:44:15.382Z,10.82
2023-02-23T12:45:22.641Z,10.78
2023-02-23T12:46:27.740Z,10.73
2023-02-23T12:47:34.311Z,10.70
2023-02-23T12:48:43.307Z,10.68
2023-02-23T12:49:50.248Z,10.66
2023-02-23T12:50:56.504Z,10.62
2023-02-23T12:52:02.102Z,10.60
2023-02-23T12:53:12.373Z,10.62
2023-02-23T12:54:16.593Z,10.71
2023-02-23T12:55:25.754Z,10.81
2023-02-23T12:56:36.990Z,10.90
2023-02-23T12:57:44.839Z,11.00
2023-02-23T12:58:52.186Z,11.07
2023-02-23T13:00:30.929Z,11.11
2023-02-23T13:01:37.923Z,11.12
2023-02-23T13:02:43.237Z,11.16
2023-02-23T13:04:04.972Z,11.18
2023-02-23T13:05:16.822Z,11.18
2023-02-23T13:06:30.342Z,11.15
2023-02-23T13:07:41.972Z,11.12
2023-02-23T13:09:00.177Z,11.11
2023-02-23T13:10:12.948Z,11.06
2023-02-23T13:11:22.358Z,11.00
2023-02-23T13:12:31.840Z,10.95
2023-02-23T13:13:38.470Z,10.92
2023-02-23T13:14:44.452Z,10.84
2023-02-23T13:15:57.303Z,10.80
2023-02-23T13:17:04.075Z,10.77
2023-02-23T13:18:11.137Z,10.74
2023-02-23T13:19:18.592Z,10.72
2023-02-23T13:20:25.395Z,10.71
2023-02-23T13:21:31.807Z,10.68
2023-02-23T13:22:37.961Z,10.66
2023-02-23T13:23:44.261Z,10.63
2023-02-23T13:24:47.977Z,10.61
2023-02-23T13:25:57.522Z,10.60
2023-02-23T13:27:02.473Z,10.56
2023-02-23T13:28:04.892Z,10.53
2023-02-23T13:29:12.107Z,10.50
2023-02-23T13:30:16.380Z,10.48
2023-02-23T13:31:24.687Z,10.47
2023-02-23T13:32:29.281Z,10.42
2023-02-23T13:33:43.645Z,10.38
2023-02-23T13:34:52.434Z,10.31
2023-02-23T13:35:54.316Z,10.28
2023-02-23T13:37:00.174Z,10.26
2023-02-23T13:38:09.696Z,10.26
2023-02-23T13:39:37.140Z,10.26
2023-02-23T13:40:45.463Z,10.27
2023-02-23T13:41:52.271Z,10.30
2023-02-23T13:43:06.887Z,10.35
2023-02-23T13:44:15.911Z,10.39
2023-02-23T13:45:27.642Z,10.46
2023-02-23T13:46:39.867Z,10.54
2023-02-23T13:47:49.056Z,10.59
2023-02-23T13:48:59.302Z,10.60
2023-02-23T13:50:05.571Z,10.60
2023-02-23T13:51:15.096Z,10.60
2023-02-23T13:52:29.250Z,10.63
2023-02-23T13:53:39.855Z,10.62
2023-02-23T13:54:53.365Z,10.58
2023-02-23T13:55:59.019Z,10.51
2023-02-23T13:57:03.941Z,10.46
2023-02-23T13:58:10.706Z,10.41
2023-02-23T13:59:18.801Z,10.37
2023-02-23T14:00:21.736Z,10.33
2023-02-23T14:01:28.810Z,10.30
2023-02-23T14:02:39.007Z,10.28
2023-02-23T14:03:54.530Z,10.25
2023-02-23T14:04:57.545Z,10.23
2023-02-23T14:06:01.996Z,10.20
2023-02-23T14:07:06.429Z,10.19
2023-02-23T14:08:21.673Z,10.18
2023-02-23T14:09:29.165Z,10.15
2023-02-23T14:10:37.418Z,10.13
2023-02-23T14:11:49.122Z,10.12
2023-02-23T14:13:05.655Z,10.10
2023-02-23T14:14:11.070Z,10.06
2023-02-23T14:15:41.375Z,10.05
2023-02-23T14:16:46.445Z,10.04
2023-02-23T14:18:22.186Z,10.06
2023-02-23T14:19:37.372Z,10.08
2023-02-23T14:20:46.634Z,10.09
2023-02-23T14:21:52.369Z,10.12
2023-02-23T14:23:17.412Z,10.15
2023-02-23T14:24:22.506Z,10.14
2023-02-23T14:25:47.371Z,10.16
2023-02-23T14:27:40.765Z,10.14
2023-02-23T14:28:45.701Z,10.12
2023-02-23T14:30:17.592Z,10.13
2023-02-23T14:31:23.248Z,10.12
2023-02-23T14:32:31.742Z,10.11
2023-02-23T14:33:35.158Z,10.10